sensor_id;sensor_type;location;lat;lon;timestamp;temperature;humidity
6252;DHT22;3159;52.414;9.784;2022-10-16T00:00:35;15.60;99.90
6252;DHT22;3159;52.414;9.784;2022-10-16T00:03:03;15.70;99.90
6252;DHT22;3159;52.414;9.784;2022-10-16T00:05:29;15.60;99.90
6252;DHT22;3159;52.414;9.784;2022-10-16T00:07:56;15.50;99.90
6252;DHT22;3159;52.414;9.784;2022-10-16T00:10:23;15.60;99.90
6252;DHT22;3159;52.414;9.784;2022-10-16T00:12:51;15.60;99.90
6252;DHT22;3159;52.414;9.784;2022-10-16T00:15:18;15.70;99.90
6252;DHT22;3159;52.414;9.784;2022-10-16T00:17:45;15.60;99.90
6252;DHT22;3159;52.414;9.784;2022-10-16T00:20:12;15.60;99.90
6252;DHT22;3159;52.414;9.784;2022-10-16T00:22:39;15.50;99.90
6252;DHT22;3159;52.414;9.784;2022-10-16T00:25:06;15.60;99.90
6252;DHT22;3159;52.414;9.784;2022-10-16T00:27:33;15.60;99.90
6252;DHT22;3159;52.414;9.784;2022-10-16T00:30:01;15.60;99.90
6252;DHT22;3159;52.414;9.784;2022-10-16T00:32:28;15.40;99.90
6252;DHT22;3159;52.414;9.784;2022-10-16T00:34:55;15.40;99.90
6252;DHT22;3159;52.414;9.784;2022-10-16T00:37:22;15.30;99.90
6252;DHT22;3159;52.414;9.784;2022-10-16T00:39:49;15.30;99.90
6252;DHT22;3159;52.414;9.784;2022-10-16T00:42:17;15.30;99.90
6252;DHT22;3159;52.414;9.784;2022-10-16T00:44:48;15.30;99.90
6252;DHT22;3159;52.414;9.784;2022-10-16T00:47:22;15.20;99.90
6252;DHT22;3159;52.414;9.784;2022-10-16T00:49:55;15.20;99.90
6252;DHT22;3159;52.414;9.784;2022-10-16T00:52:23;15.20;99.90
6252;DHT22;3159;52.414;9.784;2022-10-16T00:54:50;15.10;99.90
6252;DHT22;3159;52.414;9.784;2022-10-16T00:57:19;15.10;99.90
6252;DHT22;3159;52.414;9.784;2022-10-16T00:59:46;15.10;99.90
6252;DHT22;3159;52.414;9.784;2022-10-16T01:02:14;15.10;99.90
6252;DHT22;3159;52.414;9.784;2022-10-16T01:04:44;15.00;99.90
6252;DHT22;3159;52.414;9.784;2022-10-16T01:07:16;15.10;99.90
6252;DHT22;3159;52.414;9.784;2022-10-16T01:09:57;15.10;99.90
6252;DHT22;3159;52.414;9.784;2022-10-16T01:12:37;15.00;99.90
6252;DHT22;3159;52.414;9.784;2022-10-16T01:15:10;15.00;99.90
6252;DHT22;3159;52.414;9.784;2022-10-16T01:17:43;15.10;99.90
6252;DHT22;3159;52.414;9.784;2022-10-16T01:20:20;15.00;99.90
6252;DHT22;3159;52.414;9.784;2022-10-16T01:23:06;15.00;99.90
6252;DHT22;3159;52.414;9.784;2022-10-16T01:25:47;15.10;99.90
6252;DHT22;3159;52.414;9.784;2022-10-16T01:28:22;15.00;99.90
6252;DHT22;3159;52.414;9.784;2022-10-16T01:30:52;15.00;99.90
6252;DHT22;3159;52.414;9.784;2022-10-16T01:33:22;15.10;99.90
6252;DHT22;3159;52.414;9.784;2022-10-16T01:35:53;15.20;99.90
6252;DHT22;3159;52.414;9.784;2022-10-16T01:38:23;15.20;99.90
6252;DHT22;3159;52.414;9.784;2022-10-16T01:40:57;15.20;99.90
6252;DHT22;3159;52.414;9.784;2022-10-16T01:43:31;15.10;99.90
6252;DHT22;3159;52.414;9.784;2022-10-16T01:46:00;15.10;99.90
6252;DHT22;3159;52.414;9.784;2022-10-16T01:48:29;15.00;99.90
6252;DHT22;3159;52.414;9.784;2022-10-16T01:51:03;15.10;99.90
6252;DHT22;3159;52.414;9.784;2022-10-16T01:53:32;15.10;99.90
6252;DHT22;3159;52.414;9.784;2022-10-16T01:56:00;15.10;99.90
6252;DHT22;3159;52.414;9.784;2022-10-16T01:58:30;15.10;99.90
6252;DHT22;3159;52.414;9.784;2022-10-16T02:01:02;15.10;99.90
6252;DHT22;3159;52.414;9.784;2022-10-16T02:03:29;15.00;99.90
6252;DHT22;3159;52.414;9.784;2022-10-16T02:05:58;15.00;99.90
6252;DHT22;3159;52.414;9.784;2022-10-16T02:08:27;15.10;99.90
6252;DHT22;3159;52.414;9.784;2022-10-16T02:10:55;15.00;99.90
6252;DHT22;3159;52.414;9.784;2022-10-16T02:13:23;15.00;99.90
6252;DHT22;3159;52.414;9.784;2022-10-16T02:15:53;15.00;99.90
6252;DHT22;3159;52.414;9.784;2022-10-16T02:18:20;14.90;99.90
6252;DHT22;3159;52.414;9.784;2022-10-16T02:20:51;14.90;99.90
6252;DHT22;3159;52.414;9.784;2022-10-16T02:23:24;14.90;99.90
6252;DHT22;3159;52.414;9.784;2022-10-16T02:25:56;14.90;99.90
6252;DHT22;3159;52.414;9.784;2022-10-16T02:28:29;14.80;99.90
6252;DHT22;3159;52.414;9.784;2022-10-16T02:31:02;14.80;99.90
6252;DHT22;3159;52.414;9.784;2022-10-16T02:33:31;14.80;99.90
6252;DHT22;3159;52.414;9.784;2022-10-16T02:35:59;14.80;99.90
6252;DHT22;3159;52.414;9.784;2022-10-16T02:38:26;14.70;99.90
6252;DHT22;3159;52.414;9.784;2022-10-16T02:40:54;14.70;99.90
6252;DHT22;3159;52.414;9.784;2022-10-16T02:43:21;14.70;99.90
6252;DHT22;3159;52.414;9.784;2022-10-16T02:45:49;14.70;99.90
6252;DHT22;3159;52.414;9.784;2022-10-16T02:48:17;14.70;99.90
6252;DHT22;3159;52.414;9.784;2022-10-16T02:50:44;14.70;99.90
6252;DHT22;3159;52.414;9.784;2022-10-16T02:53:10;14.70;99.90
6252;DHT22;3159;52.414;9.784;2022-10-16T02:55:37;14.70;99.90
6252;DHT22;3159;52.414;9.784;2022-10-16T02:58:04;14.60;99.90
6252;DHT22;3159;52.414;9.784;2022-10-16T03:00:31;14.60;99.90
6252;DHT22;3159;52.414;9.784;2022-10-16T03:02:57;14.60;99.90
6252;DHT22;3159;52.414;9.784;2022-10-16T03:05:26;14.60;99.90
6252;DHT22;3159;52.414;9.784;2022-10-16T03:07:53;14.60;99.90
6252;DHT22;3159;52.414;9.784;2022-10-16T03:10:19;14.60;99.90
6252;DHT22;3159;52.414;9.784;2022-10-16T03:12:46;14.50;99.90
6252;DHT22;3159;52.414;9.784;2022-10-16T03:15:13;14.50;99.90
6252;DHT22;3159;52.414;9.784;2022-10-16T03:17:40;14.50;99.90
6252;DHT22;3159;52.414;9.784;2022-10-16T03:20:07;14.50;99.90
6252;DHT22;3159;52.414;9.784;2022-10-16T03:22:35;14.50;99.90
6252;DHT22;3159;52.414;9.784;2022-10-16T03:25:03;14.50;99.90
6252;DHT22;3159;52.414;9.784;2022-10-16T03:27:29;14.50;99.90
6252;DHT22;3159;52.414;9.784;2022-10-16T03:29:56;14.50;99.90
6252;DHT22;3159;52.414;9.784;2022-10-16T03:32:23;14.50;99.90
6252;DHT22;3159;52.414;9.784;2022-10-16T03:34:51;14.40;99.90
6252;DHT22;3159;52.414;9.784;2022-10-16T03:37:19;14.40;99.90
6252;DHT22;3159;52.414;9.784;2022-10-16T03:39:48;14.40;99.90
6252;DHT22;3159;52.414;9.784;2022-10-16T03:42:14;14.40;99.90
6252;DHT22;3159;52.414;9.784;2022-10-16T03:44:41;14.40;99.90
6252;DHT22;3159;52.414;9.784;2022-10-16T03:47:08;14.30;99.90
6252;DHT22;3159;52.414;9.784;2022-10-16T03:49:35;14.30;99.90
6252;DHT22;3159;52.414;9.784;2022-10-16T03:52:02;14.30;99.90
6252;DHT22;3159;52.414;9.784;2022-10-16T03:54:29;14.30;99.90
6252;DHT22;3159;52.414;9.784;2022-10-16T03:56:57;14.30;99.90
6252;DHT22;3159;52.414;9.784;2022-10-16T03:59:23;14.30;99.90
6252;DHT22;3159;52.414;9.784;2022-10-16T04:01:50;14.30;99.90
6252;DHT22;3159;52.414;9.784;2022-10-16T04:04:17;14.30;99.90
6252;DHT22;3159;52.414;9.784;2022-10-16T04:06:44;14.20;99.90
6252;DHT22;3159;52.414;9.784;2022-10-16T04:09:11;14.20;99.90
6252;DHT22;3159;52.414;9.784;2022-10-16T04:11:37;14.00;99.90
6252;DHT22;3159;52.414;9.784;2022-10-16T04:14:06;14.10;99.90
6252;DHT22;3159;52.414;9.784;2022-10-16T04:16:32;14.10;99.90
6252;DHT22;3159;52.414;9.784;2022-10-16T04:18:59;14.10;99.90
6252;DHT22;3159;52.414;9.784;2022-10-16T04:21:26;14.10;99.90
6252;DHT22;3159;52.414;9.784;2022-10-16T04:23:53;14.10;99.90
6252;DHT22;3159;52.414;9.784;2022-10-16T04:26:19;14.10;99.90
6252;DHT22;3159;52.414;9.784;2022-10-16T04:28:46;14.10;99.90
6252;DHT22;3159;52.414;9.784;2022-10-16T04:31:14;14.00;99.90
6252;DHT22;3159;52.414;9.784;2022-10-16T04:33:42;14.00;99.90
6252;DHT22;3159;52.414;9.784;2022-10-16T04:36:09;14.10;99.90
6252;DHT22;3159;52.414;9.784;2022-10-16T04:38:36;14.10;99.90
6252;DHT22;3159;52.414;9.784;2022-10-16T04:41:05;14.10;99.90
6252;DHT22;3159;52.414;9.784;2022-10-16T04:43:32;14.10;99.90
6252;DHT22;3159;52.414;9.784;2022-10-16T04:45:59;14.20;99.90
6252;DHT22;3159;52.414;9.784;2022-10-16T04:48:28;14.20;99.90
6252;DHT22;3159;52.414;9.784;2022-10-16T04:50:55;14.20;99.90
6252;DHT22;3159;52.414;9.784;2022-10-16T04:53:22;14.20;99.90
6252;DHT22;3159;52.414;9.784;2022-10-16T04:55:49;14.20;99.90
6252;DHT22;3159;52.414;9.784;2022-10-16T04:58:16;14.20;99.90
6252;DHT22;3159;52.414;9.784;2022-10-16T05:00:44;14.10;99.90
6252;DHT22;3159;52.414;9.784;2022-10-16T05:03:11;14.10;99.90
6252;DHT22;3159;52.414;9.784;2022-10-16T05:05:42;14.10;99.90
6252;DHT22;3159;52.414;9.784;2022-10-16T05:08:09;14.10;99.90
6252;DHT22;3159;52.414;9.784;2022-10-16T05:10:36;14.10;99.90
6252;DHT22;3159;52.414;9.784;2022-10-16T05:13:02;14.20;99.90
6252;DHT22;3159;52.414;9.784;2022-10-16T05:15:29;14.20;99.90
6252;DHT22;3159;52.414;9.784;2022-10-16T05:17:56;14.30;99.90
6252;DHT22;3159;52.414;9.784;2022-10-16T05:20:23;14.30;99.90
6252;DHT22;3159;52.414;9.784;2022-10-16T05:22:51;14.30;99.90
6252;DHT22;3159;52.414;9.784;2022-10-16T05:25:18;14.40;99.90
6252;DHT22;3159;52.414;9.784;2022-10-16T05:27:47;14.30;99.90
6252;DHT22;3159;52.414;9.784;2022-10-16T05:30:15;14.40;99.90
6252;DHT22;3159;52.414;9.784;2022-10-16T05:32:45;14.30;99.90
6252;DHT22;3159;52.414;9.784;2022-10-16T05:35:12;14.30;99.90
6252;DHT22;3159;52.414;9.784;2022-10-16T05:37:39;14.20;99.90
6252;DHT22;3159;52.414;9.784;2022-10-16T05:40:08;14.20;99.90
6252;DHT22;3159;52.414;9.784;2022-10-16T05:42:35;14.20;99.90
6252;DHT22;3159;52.414;9.784;2022-10-16T05:45:03;14.20;99.90
6252;DHT22;3159;52.414;9.784;2022-10-16T05:47:30;14.10;99.90
6252;DHT22;3159;52.414;9.784;2022-10-16T05:49:57;14.10;99.90
6252;DHT22;3159;52.414;9.784;2022-10-16T05:52:24;14.00;99.90
6252;DHT22;3159;52.414;9.784;2022-10-16T05:54:51;14.00;99.90
6252;DHT22;3159;52.414;9.784;2022-10-16T05:57:19;14.00;99.90
6252;DHT22;3159;52.414;9.784;2022-10-16T05:59:46;14.00;99.90
6252;DHT22;3159;52.414;9.784;2022-10-16T06:02:13;14.00;99.90
6252;DHT22;3159;52.414;9.784;2022-10-16T06:04:40;14.00;99.90
6252;DHT22;3159;52.414;9.784;2022-10-16T06:07:07;14.00;99.90
6252;DHT22;3159;52.414;9.784;2022-10-16T06:09:34;14.10;99.90
6252;DHT22;3159;52.414;9.784;2022-10-16T06:12:01;14.00;99.90
6252;DHT22;3159;52.414;9.784;2022-10-16T06:14:29;14.10;99.90
6252;DHT22;3159;52.414;9.784;2022-10-16T06:16:56;14.20;99.90
6252;DHT22;3159;52.414;9.784;2022-10-16T06:19:23;14.30;99.90
6252;DHT22;3159;52.414;9.784;2022-10-16T06:21:49;14.30;99.90
6252;DHT22;3159;52.414;9.784;2022-10-16T06:24:16;14.20;99.90
6252;DHT22;3159;52.414;9.784;2022-10-16T06:26:43;14.20;99.90
6252;DHT22;3159;52.414;9.784;2022-10-16T06:29:10;14.20;99.90
6252;DHT22;3159;52.414;9.784;2022-10-16T06:31:38;14.20;99.90
6252;DHT22;3159;52.414;9.784;2022-10-16T06:34:05;14.10;99.90
6252;DHT22;3159;52.414;9.784;2022-10-16T06:36:35;14.10;99.90
6252;DHT22;3159;52.414;9.784;2022-10-16T06:39:02;14.10;99.90
6252;DHT22;3159;52.414;9.784;2022-10-16T06:41:29;14.10;99.90
6252;DHT22;3159;52.414;9.784;2022-10-16T06:43:56;14.20;99.90
6252;DHT22;3159;52.414;9.784;2022-10-16T06:46:25;14.30;99.90
6252;DHT22;3159;52.414;9.784;2022-10-16T06:48:53;14.30;99.90
6252;DHT22;3159;52.414;9.784;2022-10-16T06:51:22;14.30;99.90
6252;DHT22;3159;52.414;9.784;2022-10-16T06:53:50;14.50;99.90
6252;DHT22;3159;52.414;9.784;2022-10-16T06:56:18;14.70;99.90
6252;DHT22;3159;52.414;9.784;2022-10-16T06:58:46;14.90;99.90
6252;DHT22;3159;52.414;9.784;2022-10-16T07:01:14;15.10;99.90
6252;DHT22;3159;52.414;9.784;2022-10-16T07:03:43;15.10;99.90
6252;DHT22;3159;52.414;9.784;2022-10-16T07:06:13;15.30;99.90
6252;DHT22;3159;52.414;9.784;2022-10-16T07:08:42;15.20;99.90
6252;DHT22;3159;52.414;9.784;2022-10-16T07:11:10;15.20;99.90
6252;DHT22;3159;52.414;9.784;2022-10-16T07:13:39;15.30;99.90
6252;DHT22;3159;52.414;9.784;2022-10-16T07:16:07;15.60;99.90
6252;DHT22;3159;52.414;9.784;2022-10-16T07:18:34;15.70;99.90
6252;DHT22;3159;52.414;9.784;2022-10-16T07:21:05;15.70;99.90
6252;DHT22;3159;52.414;9.784;2022-10-16T07:23:34;15.80;99.90
6252;DHT22;3159;52.414;9.784;2022-10-16T07:26:00;15.70;99.90
6252;DHT22;3159;52.414;9.784;2022-10-16T07:28:28;15.90;99.90
6252;DHT22;3159;52.414;9.784;2022-10-16T07:30:55;15.70;99.90
6252;DHT22;3159;52.414;9.784;2022-10-16T07:33:22;15.90;99.90
6252;DHT22;3159;52.414;9.784;2022-10-16T07:35:50;16.00;99.90
6252;DHT22;3159;52.414;9.784;2022-10-16T07:38:17;15.90;99.90
6252;DHT22;3159;52.414;9.784;2022-10-16T07:40:46;16.10;99.90
6252;DHT22;3159;52.414;9.784;2022-10-16T07:43:13;16.40;99.90
6252;DHT22;3159;52.414;9.784;2022-10-16T07:45:46;16.70;99.90
6252;DHT22;3159;52.414;9.784;2022-10-16T07:48:14;16.90;99.90
6252;DHT22;3159;52.414;9.784;2022-10-16T07:50:41;17.00;99.90
6252;DHT22;3159;52.414;9.784;2022-10-16T07:53:09;17.30;99.90
6252;DHT22;3159;52.414;9.784;2022-10-16T07:55:36;17.20;99.90
6252;DHT22;3159;52.414;9.784;2022-10-16T07:58:04;17.30;99.90
6252;DHT22;3159;52.414;9.784;2022-10-16T08:00:31;17.50;99.90
6252;DHT22;3159;52.414;9.784;2022-10-16T08:02:58;17.40;99.90
6252;DHT22;3159;52.414;9.784;2022-10-16T08:05:25;17.50;99.90
6252;DHT22;3159;52.414;9.784;2022-10-16T08:07:52;17.90;99.90
6252;DHT22;3159;52.414;9.784;2022-10-16T08:10:21;17.60;99.90
6252;DHT22;3159;52.414;9.784;2022-10-16T08:12:48;17.90;99.90
6252;DHT22;3159;52.414;9.784;2022-10-16T08:15:16;17.90;99.90
6252;DHT22;3159;52.414;9.784;2022-10-16T08:17:43;18.30;99.90
6252;DHT22;3159;52.414;9.784;2022-10-16T08:20:11;18.40;99.90
6252;DHT22;3159;52.414;9.784;2022-10-16T08:22:37;18.70;99.90
6252;DHT22;3159;52.414;9.784;2022-10-16T08:25:05;18.50;99.90
6252;DHT22;3159;52.414;9.784;2022-10-16T08:27:33;18.70;99.90
6252;DHT22;3159;52.414;9.784;2022-10-16T08:30:00;18.40;99.90
6252;DHT22;3159;52.414;9.784;2022-10-16T08:32:28;18.30;99.90
6252;DHT22;3159;52.414;9.784;2022-10-16T08:34:55;18.10;99.90
6252;DHT22;3159;52.414;9.784;2022-10-16T08:37:21;18.40;99.90
6252;DHT22;3159;52.414;9.784;2022-10-16T08:39:48;18.40;99.90
6252;DHT22;3159;52.414;9.784;2022-10-16T08:42:35;18.50;99.90
6252;DHT22;3159;52.414;9.784;2022-10-16T08:45:21;19.00;99.90
6252;DHT22;3159;52.414;9.784;2022-10-16T08:47:58;19.00;99.90
6252;DHT22;3159;52.414;9.784;2022-10-16T08:50:29;19.00;99.90
6252;DHT22;3159;52.414;9.784;2022-10-16T08:52:57;19.10;99.90
6252;DHT22;3159;52.414;9.784;2022-10-16T08:55:33;19.50;99.90
6252;DHT22;3159;52.414;9.784;2022-10-16T08:58:00;19.90;99.90
6252;DHT22;3159;52.414;9.784;2022-10-16T09:00:28;20.20;99.90
6252;DHT22;3159;52.414;9.784;2022-10-16T09:03:05;20.30;99.90
6252;DHT22;3159;52.414;9.784;2022-10-16T09:05:57;20.40;99.90
6252;DHT22;3159;52.414;9.784;2022-10-16T09:08:33;20.00;99.90
6252;DHT22;3159;52.414;9.784;2022-10-16T09:11:10;20.00;99.90
6252;DHT22;3159;52.414;9.784;2022-10-16T09:13:48;20.10;99.90
6252;DHT22;3159;52.414;9.784;2022-10-16T09:16:20;19.80;99.90
6252;DHT22;3159;52.414;9.784;2022-10-16T09:18:56;20.30;99.90
6252;DHT22;3159;52.414;9.784;2022-10-16T09:21:27;20.30;99.90
6252;DHT22;3159;52.414;9.784;2022-10-16T09:23:58;20.20;99.90
6252;DHT22;3159;52.414;9.784;2022-10-16T09:26:26;20.50;99.90
6252;DHT22;3159;52.414;9.784;2022-10-16T09:28:52;20.40;99.90
6252;DHT22;3159;52.414;9.784;2022-10-16T09:31:20;20.30;99.90
6252;DHT22;3159;52.414;9.784;2022-10-16T09:33:52;20.50;99.90
6252;DHT22;3159;52.414;9.784;2022-10-16T09:36:21;20.40;99.90
6252;DHT22;3159;52.414;9.784;2022-10-16T09:38:48;20.70;99.90
6252;DHT22;3159;52.414;9.784;2022-10-16T09:41:18;21.30;99.90
6252;DHT22;3159;52.414;9.784;2022-10-16T09:43:52;21.30;99.90
6252;DHT22;3159;52.414;9.784;2022-10-16T09:46:24;21.30;99.90
6252;DHT22;3159;52.414;9.784;2022-10-16T09:48:55;21.30;99.90
6252;DHT22;3159;52.414;9.784;2022-10-16T09:51:26;21.40;99.90
6252;DHT22;3159;52.414;9.784;2022-10-16T09:53:58;21.50;99.90
6252;DHT22;3159;52.414;9.784;2022-10-16T09:56:26;21.60;99.90
6252;DHT22;3159;52.414;9.784;2022-10-16T09:58:58;21.40;99.90
6252;DHT22;3159;52.414;9.784;2022-10-16T10:01:30;21.70;99.90
6252;DHT22;3159;52.414;9.784;2022-10-16T10:03:59;21.30;99.90
6252;DHT22;3159;52.414;9.784;2022-10-16T10:06:30;20.80;99.90
6252;DHT22;3159;52.414;9.784;2022-10-16T10:09:00;20.50;99.90
6252;DHT22;3159;52.414;9.784;2022-10-16T10:14:25;20.20;99.90
6252;DHT22;3159;52.414;9.784;2022-10-16T10:17:07;20.00;99.90
6252;DHT22;3159;52.414;9.784;2022-10-16T10:19:40;19.90;99.90
6252;DHT22;3159;52.414;9.784;2022-10-16T10:22:25;19.80;99.90
6252;DHT22;3159;52.414;9.784;2022-10-16T10:27:46;19.70;99.90
6252;DHT22;3159;52.414;9.784;2022-10-16T10:30:20;19.70;99.90
6252;DHT22;3159;52.414;9.784;2022-10-16T10:33:08;19.50;99.90
6252;DHT22;3159;52.414;9.784;2022-10-16T10:35:43;19.70;99.90
6252;DHT22;3159;52.414;9.784;2022-10-16T10:38:23;20.20;99.90
6252;DHT22;3159;52.414;9.784;2022-10-16T10:41:02;20.50;99.90
6252;DHT22;3159;52.414;9.784;2022-10-16T10:43:44;20.50;99.90
6252;DHT22;3159;52.414;9.784;2022-10-16T10:46:28;20.30;99.90
6252;DHT22;3159;52.414;9.784;2022-10-16T10:49:16;20.10;99.90
6252;DHT22;3159;52.414;9.784;2022-10-16T10:51:54;19.80;99.90
6252;DHT22;3159;52.414;9.784;2022-10-16T10:54:29;19.50;99.90
6252;DHT22;3159;52.414;9.784;2022-10-16T10:57:02;19.30;99.90
6252;DHT22;3159;52.414;9.784;2022-10-16T10:59:49;19.00;99.90
6252;DHT22;3159;52.414;9.784;2022-10-16T11:02:26;19.00;99.90
6252;DHT22;3159;52.414;9.784;2022-10-16T11:05:28;19.10;99.90
6252;DHT22;3159;52.414;9.784;2022-10-16T11:08:00;19.50;99.90
6252;DHT22;3159;52.414;9.784;2022-10-16T11:10:33;19.70;99.90
6252;DHT22;3159;52.414;9.784;2022-10-16T11:13:10;19.80;99.90
6252;DHT22;3159;52.414;9.784;2022-10-16T11:15:43;19.50;99.90
6252;DHT22;3159;52.414;9.784;2022-10-16T11:18:16;19.60;99.90
6252;DHT22;3159;52.414;9.784;2022-10-16T11:20:49;19.50;99.90
6252;DHT22;3159;52.414;9.784;2022-10-16T11:23:23;19.50;99.90
6252;DHT22;3159;52.414;9.784;2022-10-16T11:25:52;19.30;99.90
6252;DHT22;3159;52.414;9.784;2022-10-16T11:28:24;19.40;99.90
6252;DHT22;3159;52.414;9.784;2022-10-16T11:30:57;19.30;99.90
6252;DHT22;3159;52.414;9.784;2022-10-16T11:33:30;19.20;99.90
6252;DHT22;3159;52.414;9.784;2022-10-16T11:36:05;19.10;99.90
6252;DHT22;3159;52.414;9.784;2022-10-16T11:38:41;19.10;99.90
6252;DHT22;3159;52.414;9.784;2022-10-16T11:41:19;19.10;99.90
6252;DHT22;3159;52.414;9.784;2022-10-16T11:43:56;19.20;99.90
6252;DHT22;3159;52.414;9.784;2022-10-16T11:46:26;19.10;99.90
6252;DHT22;3159;52.414;9.784;2022-10-16T11:49:00;19.10;99.90
6252;DHT22;3159;52.414;9.784;2022-10-16T11:51:35;19.10;99.90
6252;DHT22;3159;52.414;9.784;2022-10-16T11:54:08;19.10;99.90
6252;DHT22;3159;52.414;9.784;2022-10-16T11:56:43;19.10;99.90
6252;DHT22;3159;52.414;9.784;2022-10-16T11:59:16;19.20;99.90
6252;DHT22;3159;52.414;9.784;2022-10-16T12:01:48;19.20;99.90
6252;DHT22;3159;52.414;9.784;2022-10-16T12:04:23;19.00;99.90
6252;DHT22;3159;52.414;9.784;2022-10-16T12:06:58;19.00;99.90
6252;DHT22;3159;52.414;9.784;2022-10-16T12:09:29;19.10;99.90
6252;DHT22;3159;52.414;9.784;2022-10-16T12:11:57;19.00;99.90
6252;DHT22;3159;52.414;9.784;2022-10-16T12:14:38;19.10;99.90
6252;DHT22;3159;52.414;9.784;2022-10-16T12:17:24;19.20;99.90
6252;DHT22;3159;52.414;9.784;2022-10-16T12:20:00;19.20;99.90
6252;DHT22;3159;52.414;9.784;2022-10-16T12:22:29;19.20;99.90
6252;DHT22;3159;52.414;9.784;2022-10-16T12:24:58;19.30;99.90
6252;DHT22;3159;52.414;9.784;2022-10-16T12:27:28;19.50;99.90
6252;DHT22;3159;52.414;9.784;2022-10-16T12:29:57;19.60;99.90
6252;DHT22;3159;52.414;9.784;2022-10-16T12:32:30;19.60;99.90
6252;DHT22;3159;52.414;9.784;2022-10-16T12:34:58;19.70;99.90
6252;DHT22;3159;52.414;9.784;2022-10-16T12:37:28;19.70;99.90
6252;DHT22;3159;52.414;9.784;2022-10-16T12:39:58;19.80;99.90
6252;DHT22;3159;52.414;9.784;2022-10-16T12:42:33;19.90;99.90
6252;DHT22;3159;52.414;9.784;2022-10-16T12:45:01;20.00;99.90
6252;DHT22;3159;52.414;9.784;2022-10-16T12:47:48;20.20;99.90
6252;DHT22;3159;52.414;9.784;2022-10-16T12:50:31;20.20;99.90
6252;DHT22;3159;52.414;9.784;2022-10-16T12:52:59;20.40;99.90
6252;DHT22;3159;52.414;9.784;2022-10-16T12:55:34;20.50;99.90
6252;DHT22;3159;52.414;9.784;2022-10-16T12:58:20;20.50;99.90
6252;DHT22;3159;52.414;9.784;2022-10-16T13:00:56;20.30;99.90
6252;DHT22;3159;52.414;9.784;2022-10-16T13:03:48;20.40;99.90
6252;DHT22;3159;52.414;9.784;2022-10-16T13:06:30;21.00;99.90
6252;DHT22;3159;52.414;9.784;2022-10-16T13:09:17;20.60;99.90
6252;DHT22;3159;52.414;9.784;2022-10-16T13:11:57;20.80;99.90
6252;DHT22;3159;52.414;9.784;2022-10-16T13:14:43;20.50;99.90
6252;DHT22;3159;52.414;9.784;2022-10-16T13:17:18;20.60;99.90
6252;DHT22;3159;52.414;9.784;2022-10-16T13:19:55;20.60;99.90
6252;DHT22;3159;52.414;9.784;2022-10-16T13:22:29;20.40;99.90
6252;DHT22;3159;52.414;9.784;2022-10-16T13:25:13;20.40;99.90
6252;DHT22;3159;52.414;9.784;2022-10-16T13:27:48;20.20;99.90
6252;DHT22;3159;52.414;9.784;2022-10-16T13:30:19;20.20;99.90
6252;DHT22;3159;52.414;9.784;2022-10-16T13:32:48;20.10;99.90
6252;DHT22;3159;52.414;9.784;2022-10-16T13:35:21;20.50;99.90
6252;DHT22;3159;52.414;9.784;2022-10-16T13:37:48;20.30;99.90
6252;DHT22;3159;52.414;9.784;2022-10-16T13:40:19;20.20;99.90
6252;DHT22;3159;52.414;9.784;2022-10-16T13:42:48;20.20;99.90
6252;DHT22;3159;52.414;9.784;2022-10-16T13:45:19;20.40;99.90
6252;DHT22;3159;52.414;9.784;2022-10-16T13:47:45;20.50;99.90
6252;DHT22;3159;52.414;9.784;2022-10-16T13:50:14;20.90;99.90
6252;DHT22;3159;52.414;9.784;2022-10-16T13:52:41;21.10;99.90
6252;DHT22;3159;52.414;9.784;2022-10-16T13:55:11;21.00;99.90
6252;DHT22;3159;52.414;9.784;2022-10-16T13:57:39;20.90;99.90
6252;DHT22;3159;52.414;9.784;2022-10-16T14:00:20;20.90;99.90
6252;DHT22;3159;52.414;9.784;2022-10-16T14:02:52;21.50;99.90
6252;DHT22;3159;52.414;9.784;2022-10-16T14:05:19;21.50;99.90
6252;DHT22;3159;52.414;9.784;2022-10-16T14:07:48;21.60;99.90
6252;DHT22;3159;52.414;9.784;2022-10-16T14:10:22;21.20;99.90
6252;DHT22;3159;52.414;9.784;2022-10-16T14:12:57;20.80;99.90
6252;DHT22;3159;52.414;9.784;2022-10-16T14:15:27;20.60;99.90
6252;DHT22;3159;52.414;9.784;2022-10-16T14:17:54;20.50;99.90
6252;DHT22;3159;52.414;9.784;2022-10-16T14:20:25;20.80;99.90
6252;DHT22;3159;52.414;9.784;2022-10-16T14:23:02;20.90;99.90
6252;DHT22;3159;52.414;9.784;2022-10-16T14:25:31;21.10;99.90
6252;DHT22;3159;52.414;9.784;2022-10-16T14:28:00;21.10;99.90
6252;DHT22;3159;52.414;9.784;2022-10-16T14:30:29;21.00;99.90
6252;DHT22;3159;52.414;9.784;2022-10-16T14:32:59;21.00;99.90
6252;DHT22;3159;52.414;9.784;2022-10-16T14:35:29;21.10;99.90
6252;DHT22;3159;52.414;9.784;2022-10-16T14:37:57;21.20;99.90
6252;DHT22;3159;52.414;9.784;2022-10-16T14:40:26;21.10;99.90
6252;DHT22;3159;52.414;9.784;2022-10-16T14:42:53;20.90;99.90
6252;DHT22;3159;52.414;9.784;2022-10-16T14:45:22;20.80;99.90
6252;DHT22;3159;52.414;9.784;2022-10-16T14:47:53;20.80;99.90
6252;DHT22;3159;52.414;9.784;2022-10-16T14:50:21;20.80;99.90
6252;DHT22;3159;52.414;9.784;2022-10-16T14:52:48;20.80;99.90
6252;DHT22;3159;52.414;9.784;2022-10-16T14:55:15;20.80;99.90
6252;DHT22;3159;52.414;9.784;2022-10-16T14:57:43;20.80;99.90
6252;DHT22;3159;52.414;9.784;2022-10-16T15:00:18;20.90;99.90
6252;DHT22;3159;52.414;9.784;2022-10-16T15:02:46;20.50;99.90
6252;DHT22;3159;52.414;9.784;2022-10-16T15:05:18;20.30;99.90
6252;DHT22;3159;52.414;9.784;2022-10-16T15:07:46;20.10;99.90
6252;DHT22;3159;52.414;9.784;2022-10-16T15:10:13;20.00;99.90
6252;DHT22;3159;52.414;9.784;2022-10-16T15:12:40;19.90;99.90
6252;DHT22;3159;52.414;9.784;2022-10-16T15:15:29;19.80;99.90
6252;DHT22;3159;52.414;9.784;2022-10-16T15:17:58;19.70;99.90
6252;DHT22;3159;52.414;9.784;2022-10-16T15:20:28;19.70;99.90
6252;DHT22;3159;52.414;9.784;2022-10-16T15:22:56;19.60;99.90
6252;DHT22;3159;52.414;9.784;2022-10-16T15:25:35;19.60;99.90
6252;DHT22;3159;52.414;9.784;2022-10-16T15:28:03;19.50;99.90
6252;DHT22;3159;52.414;9.784;2022-10-16T15:30:31;19.40;99.90
6252;DHT22;3159;52.414;9.784;2022-10-16T15:32:58;19.50;99.90
6252;DHT22;3159;52.414;9.784;2022-10-16T15:35:25;19.40;99.90
6252;DHT22;3159;52.414;9.784;2022-10-16T15:37:53;19.40;99.90
6252;DHT22;3159;52.414;9.784;2022-10-16T15:40:21;19.30;99.90
6252;DHT22;3159;52.414;9.784;2022-10-16T15:42:48;19.40;99.90
6252;DHT22;3159;52.414;9.784;2022-10-16T15:45:15;19.30;99.90
6252;DHT22;3159;52.414;9.784;2022-10-16T15:47:43;19.30;99.90
6252;DHT22;3159;52.414;9.784;2022-10-16T15:50:10;19.20;99.90
6252;DHT22;3159;52.414;9.784;2022-10-16T15:52:38;19.20;99.90
6252;DHT22;3159;52.414;9.784;2022-10-16T15:55:07;19.20;99.90
6252;DHT22;3159;52.414;9.784;2022-10-16T15:57:35;19.20;99.90
6252;DHT22;3159;52.414;9.784;2022-10-16T16:00:05;19.10;99.90
6252;DHT22;3159;52.414;9.784;2022-10-16T16:02:33;19.10;99.90
6252;DHT22;3159;52.414;9.784;2022-10-16T16:05:00;19.00;99.90
6252;DHT22;3159;52.414;9.784;2022-10-16T16:07:27;18.90;99.90
6252;DHT22;3159;52.414;9.784;2022-10-16T16:09:54;18.70;99.90
6252;DHT22;3159;52.414;9.784;2022-10-16T16:12:22;18.70;99.90
6252;DHT22;3159;52.414;9.784;2022-10-16T16:14:49;18.60;99.90
6252;DHT22;3159;52.414;9.784;2022-10-16T16:17:16;18.50;99.90
6252;DHT22;3159;52.414;9.784;2022-10-16T16:19:45;18.40;99.90
6252;DHT22;3159;52.414;9.784;2022-10-16T16:22:12;18.40;99.90
6252;DHT22;3159;52.414;9.784;2022-10-16T16:24:39;18.30;99.90
6252;DHT22;3159;52.414;9.784;2022-10-16T16:27:05;18.20;99.90